Terminal Aerodrome Forecast
Issued by NWS

Home | Current Version | Previous Version | Text Only | Print | Product List | Glossary On
Versions: 1 2 3 4 5 6 7 8 9 10 11 12 13 14 15 16 17 18 19
000
FTUS45 KABQ 161135
TAFLVS
TAF
KLVS 161135Z 1612/1712 VRB05KT 2SM BR OVC007
      TEMPO 1612/1616 1/4SM FZFG OVC001
     FM161700 VRB05KT P6SM OVC011
     FM161900 14008KT P6SM OVC020
     FM170300 VRB05KT 3/4SM BR OVC005=

USA.gov is the U.S. government's official web portal to all federal, state and local government web resources and services.